Time;durP1;ratioP1;P1;durP2;ratioP2;P2;SDS_P1;SDS_P2;PMS_P1;PMS_P2;Temp;Humidity;BMP_temperature;BMP_pressure;BME280_temperature;BME280_humidity;BME280_pressure;Samples;Min_cycle;Max_cycle;Signal;HPM_P1;HPM_P2
2023/11/25 00:00:13;;;;;;;23.23;3.97;;;;;;;;;;5020388;28;20025;-64
2023/11/25 00:02:38;;;;;;;22.20;4.10;;;;;;;;;;5021064;28;20029;-64
2023/11/25 00:05:03;;;;;;;18.47;4.23;;;;;;;;;;5016954;28;20032;-64
2023/11/25 00:07:29;;;;;;;13.93;3.63;;;;;;;;;;5019303;28;20066;-64
2023/11/25 00:09:54;;;;;;;15.47;3.43;;;;;;;;;;5019559;28;20021;-65
2023/11/25 00:12:20;;;;;;;20.50;3.57;;;;;;;;;;5020412;28;20370;-65
2023/11/25 00:14:45;;;;;;;18.90;3.43;;;;;;;;;;5011997;28;20099;-65
2023/11/25 00:17:10;;;;;;;16.70;3.53;;;;;;;;;;5019772;28;20030;-64
2023/11/25 00:19:35;;;;;;;20.37;3.50;;;;;;;;;;5015611;28;20030;-65
2023/11/25 00:22:01;;;;;;;15.27;3.13;;;;;;;;;;5012589;28;20484;-64
2023/11/25 00:24:26;;;;;;;18.07;3.40;;;;;;;;;;5019851;28;20057;-64
2023/11/25 00:26:51;;;;;;;19.00;3.33;;;;;;;;;;5012930;28;20053;-64
2023/11/25 00:29:17;;;;;;;19.37;3.43;;;;;;;;;;5019434;28;20060;-63
2023/11/25 00:31:43;;;;;;;17.53;3.10;;;;;;;;;;5016098;28;20034;-64
2023/11/25 00:34:08;;;;;;;20.93;3.00;;;;;;;;;;5019191;28;20349;-63
2023/11/25 00:36:33;;;;;;;15.77;3.00;;;;;;;;;;5022977;28;20028;-63
2023/11/25 00:38:59;;;;;;;12.90;2.93;;;;;;;;;;5013086;28;20037;-63
2023/11/25 00:41:24;;;;;;;20.07;3.40;;;;;;;;;;5016843;28;20037;-63
2023/11/25 00:43:50;;;;;;;13.90;3.07;;;;;;;;;;5020364;28;20028;-62
2023/11/25 00:46:15;;;;;;;15.67;2.77;;;;;;;;;;5017460;28;20029;-62
2023/11/25 00:48:43;;;;;;;14.60;3.07;;;;;;;;;;5019977;28;20188;-62
2023/11/25 00:51:08;;;;;;;13.93;2.97;;;;;;;;;;5019515;28;20025;-62
2023/11/25 00:53:33;;;;;;;20.03;2.93;;;;;;;;;;5020181;28;20455;-62
2023/11/25 00:55:58;;;;;;;17.23;2.63;;;;;;;;;;5021530;28;20108;-62
2023/11/25 00:58:24;;;;;;;13.80;2.70;;;;;;;;;;5018658;28;20030;-62
2023/11/25 01:00:50;;;;;;;18.73;3.33;;;;;;;;;;5015793;28;20497;-62
2023/11/25 01:03:15;;;;;;;23.83;3.03;;;;;;;;;;5018098;28;20029;-62
2023/11/25 01:05:41;;;;;;;18.03;3.17;;;;;;;;;;5019792;28;20036;-62
2023/11/25 01:08:06;;;;;;;20.33;2.83;;;;;;;;;;5020226;28;20022;-62
2023/11/25 01:10:31;;;;;;;16.13;2.80;;;;;;;;;;5020624;28;20017;-62
2023/11/25 01:12:56;;;;;;;13.83;2.80;;;;;;;;;;5011908;28;20104;-62
2023/11/25 01:15:22;;;;;;;20.40;2.57;;;;;;;;;;5018842;28;20462;-62
2023/11/25 01:17:47;;;;;;;17.03;2.50;;;;;;;;;;5017672;28;20068;-62
2023/11/25 01:20:13;;;;;;;18.27;2.43;;;;;;;;;;5019999;28;20022;-61
2023/11/25 01:22:39;;;;;;;16.90;2.87;;;;;;;;;;5019298;28;20082;-61
2023/11/25 01:25:06;;;;;;;21.20;2.97;;;;;;;;;;5016482;28;20028;-61
2023/11/25 01:27:33;;;;;;;12.30;2.33;;;;;;;;;;5022043;28;20418;-63
2023/11/25 01:29:59;;;;;;;21.70;3.57;;;;;;;;;;5011389;28;20026;-61
2023/11/25 01:32:25;;;;;;;20.10;2.80;;;;;;;;;;5010633;28;20036;-61
2023/11/25 01:34:50;;;;;;;18.60;2.97;;;;;;;;;;5018642;28;20021;-60
2023/11/25 01:37:17;;;;;;;19.30;3.47;;;;;;;;;;5014344;28;20029;-60
2023/11/25 01:39:43;;;;;;;19.43;3.10;;;;;;;;;;5019336;28;20026;-61
2023/11/25 01:42:08;;;;;;;22.60;3.07;;;;;;;;;;5015467;28;20607;-60
2023/11/25 01:44:33;;;;;;;13.23;2.90;;;;;;;;;;5017117;28;20143;-62
2023/11/25 01:46:58;;;;;;;16.17;2.40;;;;;;;;;;5018824;28;20108;-61
2023/11/25 01:49:25;;;;;;;15.83;2.73;;;;;;;;;;5013158;28;20044;-61
2023/11/25 01:51:51;;;;;;;12.77;2.53;;;;;;;;;;5018987;28;20052;-60
2023/11/25 01:54:16;;;;;;;16.03;2.50;;;;;;;;;;5016064;28;20056;-60
2023/11/25 01:56:44;;;;;;;20.20;2.73;;;;;;;;;;5015497;28;20652;-61
2023/11/25 01:59:11;;;;;;;17.27;2.20;;;;;;;;;;5020490;28;20671;-61
2023/11/25 02:01:36;;;;;;;13.10;2.50;;;;;;;;;;5020475;28;20033;-61
2023/11/25 02:04:02;;;;;;;15.80;2.97;;;;;;;;;;5018756;28;20096;-61
2023/11/25 02:06:27;;;;;;;15.07;2.40;;;;;;;;;;5019268;28;20129;-61
2023/11/25 02:08:53;;;;;;;17.93;2.30;;;;;;;;;;5017897;28;20029;-61
2023/11/25 02:11:18;;;;;;;12.33;2.53;;;;;;;;;;4997164;28;20117;-61
2023/11/25 02:13:44;;;;;;;15.40;2.83;;;;;;;;;;5017590;28;20068;-61
2023/11/25 02:16:10;;;;;;;14.07;2.07;;;;;;;;;;5019320;28;20417;-61
2023/11/25 02:18:36;;;;;;;16.27;2.20;;;;;;;;;;5020195;28;20500;-60
2023/11/25 02:21:02;;;;;;;12.07;2.50;;;;;;;;;;5015352;28;20025;-61
2023/11/25 02:23:27;;;;;;;17.67;2.60;;;;;;;;;;5017422;28;20057;-62
2023/11/25 02:25:52;;;;;;;12.57;2.60;;;;;;;;;;5017734;28;20040;-61
2023/11/25 02:28:21;;;;;;;10.73;2.20;;;;;;;;;;5016700;28;20034;-61
2023/11/25 02:30:46;;;;;;;10.97;2.10;;;;;;;;;;5023804;28;20022;-61
2023/11/25 02:33:15;;;;;;;19.50;2.20;;;;;;;;;;5018434;28;20117;-61
2023/11/25 02:35:42;;;;;;;14.77;2.33;;;;;;;;;;5019830;28;20026;-60
2023/11/25 02:38:08;;;;;;;17.90;2.60;;;;;;;;;;5013158;28;20433;-61
2023/11/25 02:40:33;;;;;;;15.47;2.07;;;;;;;;;;5020010;28;20029;-62
2023/11/25 02:42:58;;;;;;;12.97;2.23;;;;;;;;;;5023912;28;20484;-61
2023/11/25 02:45:23;;;;;;;8.67;2.20;;;;;;;;;;5019900;28;20046;-62
2023/11/25 02:47:49;;;;;;;12.03;2.33;;;;;;;;;;5021644;28;20033;-63
2023/11/25 02:50:15;;;;;;;17.43;2.43;;;;;;;;;;5017243;28;20064;-62
2023/11/25 02:52:40;;;;;;;13.50;2.03;;;;;;;;;;5018631;28;20373;-61
2023/11/25 02:55:06;;;;;;;13.20;1.93;;;;;;;;;;5021143;28;20322;-62
2023/11/25 02:57:31;;;;;;;12.07;1.70;;;;;;;;;;5018385;28;20097;-61
2023/11/25 02:59:59;;;;;;;12.20;2.10;;;;;;;;;;5021595;28;20557;-61
2023/11/25 03:02:24;;;;;;;12.23;2.17;;;;;;;;;;5017861;28;20435;-63
2023/11/25 03:04:50;;;;;;;11.63;1.67;;;;;;;;;;5018272;28;20069;-63
2023/11/25 03:07:15;;;;;;;17.27;2.20;;;;;;;;;;5021951;28;20523;-63
2023/11/25 03:09:42;;;;;;;13.97;2.00;;;;;;;;;;5019933;28;20428;-63
2023/11/25 03:12:09;;;;;;;13.43;1.97;;;;;;;;;;5018292;28;20427;-63
2023/11/25 03:14:34;;;;;;;13.93;2.17;;;;;;;;;;5021540;28;20084;-64
2023/11/25 03:16:59;;;;;;;12.43;2.43;;;;;;;;;;5016000;28;20037;-63
2023/11/25 03:19:25;;;;;;;10.53;2.50;;;;;;;;;;5017581;28;20029;-63
2023/11/25 03:21:52;;;;;;;14.47;1.80;;;;;;;;;;5014948;28;20056;-63
2023/11/25 03:24:18;;;;;;;13.13;2.27;;;;;;;;;;5018967;28;20061;-62
2023/11/25 03:26:43;;;;;;;12.40;2.20;;;;;;;;;;5020211;28;20041;-61
2023/11/25 03:29:09;;;;;;;16.13;2.70;;;;;;;;;;5016277;28;20375;-64
2023/11/25 03:31:41;;;;;;;18.70;2.33;;;;;;;;;;5020632;28;20088;-63
2023/11/25 03:34:06;;;;;;;12.05;2.47;;;;;;;;;;5018079;28;20076;-64
2023/11/25 03:36:31;;;;;;;13.40;2.43;;;;;;;;;;5017712;28;20691;-63
2023/11/25 03:38:57;;;;;;;17.67;2.67;;;;;;;;;;5011163;28;20068;-63
2023/11/25 03:41:23;;;;;;;11.20;2.03;;;;;;;;;;5017105;28;20025;-63
2023/11/25 03:43:48;;;;;;;17.03;2.13;;;;;;;;;;5026759;28;20029;-63
2023/11/25 03:46:13;;;;;;;24.07;2.60;;;;;;;;;;5020758;28;20029;-63
2023/11/25 03:48:39;;;;;;;15.37;2.17;;;;;;;;;;5016587;28;20032;-64
2023/11/25 03:51:05;;;;;;;18.33;2.40;;;;;;;;;;5016255;28;20022;-63
2023/11/25 03:53:30;;;;;;;14.87;2.27;;;;;;;;;;5021466;28;20374;-62
2023/11/25 03:55:59;;;;;;;22.37;3.00;;;;;;;;;;5022827;28;20029;-63
2023/11/25 03:58:25;;;;;;;11.20;2.13;;;;;;;;;;5022735;28;20029;-62
2023/11/25 04:00:50;;;;;;;18.97;2.50;;;;;;;;;;5022647;28;20032;-61
2023/11/25 04:03:15;;;;;;;19.30;2.43;;;;;;;;;;5018856;28;20452;-63
2023/11/25 04:05:41;;;;;;;19.03;2.73;;;;;;;;;;5017416;28;20034;-63
2023/11/25 04:08:06;;;;;;;8.20;2.10;;;;;;;;;;5019384;28;20032;-63
2023/11/25 04:10:31;;;;;;;11.77;2.03;;;;;;;;;;5019962;28;20033;-63
2023/11/25 04:12:56;;;;;;;15.87;2.27;;;;;;;;;;5018083;28;20026;-62
2023/11/25 04:15:22;;;;;;;16.03;2.13;;;;;;;;;;5020335;28;20014;-62
2023/11/25 04:17:48;;;;;;;14.93;2.33;;;;;;;;;;5020940;28;20026;-62
2023/11/25 04:20:13;;;;;;;18.57;2.40;;;;;;;;;;5015023;28;20029;-62
2023/11/25 04:22:50;;;;;;;19.40;2.87;;;;;;;;;;5019126;28;20052;-62
2023/11/25 04:25:16;;;;;;;15.90;2.30;;;;;;;;;;5015075;28;20029;-62
2023/11/25 04:27:42;;;;;;;18.43;2.10;;;;;;;;;;5016148;28;20029;-63
2023/11/25 04:30:08;;;;;;;14.17;1.90;;;;;;;;;;5018923;28;20022;-63
2023/11/25 04:32:34;;;;;;;16.37;2.97;;;;;;;;;;5017248;28;20025;-64
2023/11/25 04:34:59;;;;;;;21.03;2.33;;;;;;;;;;5018273;28;20022;-63
2023/11/25 04:37:25;;;;;;;16.90;2.23;;;;;;;;;;5019522;28;20025;-62
2023/11/25 04:39:50;;;;;;;15.50;1.90;;;;;;;;;;5020540;28;20410;-64
2023/11/25 04:42:16;;;;;;;23.03;2.20;;;;;;;;;;5019812;28;20079;-64
2023/11/25 04:44:41;;;;;;;20.83;2.30;;;;;;;;;;5017131;28;20590;-64
2023/11/25 04:47:06;;;;;;;16.37;1.90;;;;;;;;;;5015460;28;20041;-63
2023/11/25 04:49:32;;;;;;;21.53;2.33;;;;;;;;;;5015059;28;20386;-66
2023/11/25 04:51:57;;;;;;;9.20;1.60;;;;;;;;;;5017947;28;20032;-62
2023/11/25 04:54:22;;;;;;;16.93;2.10;;;;;;;;;;5017705;28;20021;-64
2023/11/25 04:56:48;;;;;;;11.37;1.90;;;;;;;;;;5020733;28;20037;-63
2023/11/25 04:59:13;;;;;;;14.10;1.70;;;;;;;;;;5011886;28;20037;-63
2023/11/25 05:01:39;;;;;;;13.33;2.33;;;;;;;;;;5021122;28;20112;-65
2023/11/25 05:04:05;;;;;;;11.87;1.90;;;;;;;;;;5014134;28;20028;-62
2023/11/25 05:06:30;;;;;;;13.73;2.27;;;;;;;;;;5020585;28;20121;-64
2023/11/25 05:08:55;;;;;;;12.03;1.90;;;;;;;;;;5018365;28;20025;-64
2023/11/25 05:11:21;;;;;;;11.07;1.93;;;;;;;;;;5016073;28;20029;-64
2023/11/25 05:13:46;;;;;;;9.60;1.60;;;;;;;;;;5019794;28;20043;-64
2023/11/25 05:16:11;;;;;;;5.80;1.50;;;;;;;;;;5014280;28;20441;-63
2023/11/25 05:18:36;;;;;;;13.37;1.87;;;;;;;;;;5014702;28;20041;-63
2023/11/25 05:21:03;;;;;;;15.97;1.83;;;;;;;;;;5019369;28;20030;-62
2023/11/25 05:23:28;;;;;;;11.97;1.47;;;;;;;;;;5014884;28;20092;-62
2023/11/25 05:25:54;;;;;;;20.10;2.77;;;;;;;;;;5018981;28;20489;-63
2023/11/25 05:28:19;;;;;;;15.67;1.50;;;;;;;;;;5018111;28;20018;-63
2023/11/25 05:30:45;;;;;;;12.83;2.10;;;;;;;;;;5015442;28;20130;-64
2023/11/25 05:33:10;;;;;;;24.53;2.00;;;;;;;;;;5017675;28;20029;-65
2023/11/25 05:35:35;;;;;;;13.23;1.73;;;;;;;;;;5011429;28;20474;-62
2023/11/25 05:38:01;;;;;;;15.47;2.53;;;;;;;;;;5019410;28;20024;-65
2023/11/25 05:40:29;;;;;;;13.13;1.83;;;;;;;;;;5015524;28;20028;-64
2023/11/25 05:42:57;;;;;;;15.90;2.00;;;;;;;;;;5018751;28;20147;-62
2023/11/25 05:45:26;;;;;;;16.90;1.80;;;;;;;;;;5014394;28;20033;-63
2023/11/25 05:47:51;;;;;;;11.53;1.87;;;;;;;;;;5022412;28;20054;-63
2023/11/25 05:50:20;;;;;;;16.83;1.87;;;;;;;;;;5023409;28;20018;-62
2023/11/25 05:52:46;;;;;;;13.40;1.60;;;;;;;;;;5016478;28;20458;-64
2023/11/25 05:55:11;;;;;;;11.80;1.80;;;;;;;;;;5016590;28;20029;-66
2023/11/25 05:57:37;;;;;;;17.03;2.47;;;;;;;;;;5016412;28;20029;-68
2023/11/25 06:00:02;;;;;;;21.50;2.37;;;;;;;;;;5020099;28;20108;-67
2023/11/25 06:02:28;;;;;;;13.23;2.30;;;;;;;;;;5018766;28;20387;-67
2023/11/25 06:04:53;;;;;;;17.57;2.40;;;;;;;;;;5021457;28;20033;-63
2023/11/25 06:07:19;;;;;;;15.43;2.20;;;;;;;;;;5016227;28;20030;-62
2023/11/25 06:09:44;;;;;;;12.17;1.87;;;;;;;;;;5018016;28;20044;-64
2023/11/25 06:12:11;;;;;;;12.63;2.03;;;;;;;;;;5014903;28;20033;-63
2023/11/25 06:14:37;;;;;;;11.83;1.60;;;;;;;;;;5021790;28;20025;-63
2023/11/25 06:17:04;;;;;;;13.50;1.90;;;;;;;;;;5024067;28;20405;-63
2023/11/25 06:19:31;;;;;;;8.90;1.63;;;;;;;;;;5018772;28;20120;-62
2023/11/25 06:21:58;;;;;;;6.87;1.30;;;;;;;;;;5019579;28;20434;-62
2023/11/25 06:24:24;;;;;;;12.40;1.57;;;;;;;;;;5020086;28;20443;-64
2023/11/25 06:26:50;;;;;;;13.17;2.40;;;;;;;;;;5018678;28;20035;-63
2023/11/25 06:29:15;;;;;;;8.33;1.43;;;;;;;;;;5021535;28;20017;-63
2023/11/25 06:31:44;;;;;;;11.60;1.57;;;;;;;;;;5017657;28;20094;-64
2023/11/25 06:34:09;;;;;;;11.23;1.37;;;;;;;;;;5019990;28;20053;-63
2023/11/25 06:36:35;;;;;;;10.83;1.40;;;;;;;;;;5019750;28;20498;-63
2023/11/25 06:39:00;;;;;;;13.93;2.10;;;;;;;;;;5017067;28;20034;-63
2023/11/25 06:41:27;;;;;;;15.30;1.77;;;;;;;;;;5020286;28;20026;-63
2023/11/25 06:43:52;;;;;;;9.83;1.27;;;;;;;;;;5020757;28;20033;-64
2023/11/25 06:46:18;;;;;;;15.27;1.80;;;;;;;;;;5018662;28;20037;-63
2023/11/25 06:48:43;;;;;;;9.00;1.40;;;;;;;;;;5021949;28;20459;-63
2023/11/25 06:51:11;;;;;;;8.87;1.70;;;;;;;;;;5017170;28;20034;-63
2023/11/25 06:53:36;;;;;;;4.77;1.00;;;;;;;;;;5016586;28;20490;-62
2023/11/25 06:56:02;;;;;;;7.03;1.10;;;;;;;;;;5020996;28;20087;-63
2023/11/25 06:58:27;;;;;;;6.33;1.57;;;;;;;;;;5019342;28;20037;-63
2023/11/25 07:00:53;;;;;;;6.83;0.87;;;;;;;;;;5018204;28;20033;-63
2023/11/25 07:03:19;;;;;;;6.33;1.10;;;;;;;;;;5019360;28;20037;-65
2023/11/25 07:05:44;;;;;;;4.63;0.93;;;;;;;;;;5002037;28;20033;-65
2023/11/25 07:08:10;;;;;;;6.17;1.00;;;;;;;;;;5018790;28;20029;-65
2023/11/25 07:10:35;;;;;;;9.37;1.30;;;;;;;;;;5019871;28;20382;-64
2023/11/25 07:13:04;;;;;;;7.93;1.30;;;;;;;;;;5018582;28;20372;-64
2023/11/25 07:15:30;;;;;;;8.80;1.40;;;;;;;;;;5017106;28;20270;-65
2023/11/25 07:17:55;;;;;;;7.43;1.20;;;;;;;;;;5021718;28;20029;-62
2023/11/25 07:20:21;;;;;;;6.03;1.50;;;;;;;;;;5020587;28;20045;-64
2023/11/25 07:22:47;;;;;;;8.20;1.00;;;;;;;;;;5016551;28;20132;-64
2023/11/25 07:25:12;;;;;;;11.43;1.00;;;;;;;;;;5018714;28;20377;-67
2023/11/25 07:27:38;;;;;;;6.53;1.33;;;;;;;;;;5014609;28;20040;-67
2023/11/25 07:30:05;;;;;;;8.13;1.37;;;;;;;;;;5022491;28;20071;-66
2023/11/25 07:32:30;;;;;;;6.80;1.27;;;;;;;;;;5017209;28;20041;-65
2023/11/25 07:34:55;;;;;;;6.53;1.10;;;;;;;;;;5018550;28;20022;-65
2023/11/25 07:37:22;;;;;;;10.23;1.20;;;;;;;;;;5017255;28;20434;-64
2023/11/25 07:39:48;;;;;;;9.00;1.03;;;;;;;;;;5022019;28;20076;-66
2023/11/25 07:42:13;;;;;;;7.90;1.43;;;;;;;;;;5020101;28;20029;-63
2023/11/25 07:44:39;;;;;;;6.07;0.90;;;;;;;;;;5019799;28;20071;-65
2023/11/25 07:47:04;;;;;;;6.57;1.53;;;;;;;;;;5020319;28;20030;-66
2023/11/25 07:49:29;;;;;;;4.67;1.30;;;;;;;;;;5019502;28;20049;-66
2023/11/25 07:51:55;;;;;;;10.43;1.10;;;;;;;;;;5019586;28;20014;-65
2023/11/25 07:54:20;;;;;;;4.43;0.80;;;;;;;;;;5018532;28;20036;-65
2023/11/25 07:56:47;;;;;;;7.07;1.10;;;;;;;;;;5016037;28;20030;-65
2023/11/25 07:59:13;;;;;;;4.83;1.00;;;;;;;;;;5017920;28;20032;-65
2023/11/25 08:01:38;;;;;;;6.50;0.83;;;;;;;;;;5015981;28;20466;-65
2023/11/25 08:04:04;;;;;;;12.10;1.30;;;;;;;;;;5014812;28;20033;-66
2023/11/25 08:06:30;;;;;;;3.27;1.20;;;;;;;;;;5021640;28;20087;-66
2023/11/25 08:08:55;;;;;;;4.57;0.83;;;;;;;;;;5019590;28;20045;-65
2023/11/25 08:11:27;;;;;;;5.57;1.10;;;;;;;;;;5018937;28;20037;-65
2023/11/25 08:13:54;;;;;;;5.67;1.00;;;;;;;;;;5009357;28;20103;-66
2023/11/25 08:16:19;;;;;;;7.47;1.20;;;;;;;;;;5017970;28;20083;-67
2023/11/25 08:18:45;;;;;;;8.73;1.40;;;;;;;;;;5020289;28;20463;-66
2023/11/25 08:21:11;;;;;;;10.23;1.17;;;;;;;;;;5016606;28;20029;-66
2023/11/25 08:23:36;;;;;;;7.60;1.07;;;;;;;;;;5012930;28;20046;-66
2023/11/25 08:26:01;;;;;;;10.13;1.30;;;;;;;;;;5014487;28;20024;-65
2023/11/25 08:28:27;;;;;;;8.57;1.20;;;;;;;;;;5016884;28;20032;-64
2023/11/25 08:30:52;;;;;;;12.63;2.27;;;;;;;;;;5018065;28;20025;-63
2023/11/25 08:33:18;;;;;;;11.10;1.80;;;;;;;;;;5019995;28;20033;-63
2023/11/25 08:35:43;;;;;;;11.07;2.27;;;;;;;;;;5014162;28;20048;-65
2023/11/25 08:38:09;;;;;;;6.60;1.37;;;;;;;;;;5019511;28;20026;-63
2023/11/25 08:40:34;;;;;;;10.20;2.03;;;;;;;;;;5017784;28;20024;-63
2023/11/25 08:43:08;;;;;;;12.53;1.60;;;;;;;;;;5013626;28;20084;-66
2023/11/25 08:45:33;;;;;;;11.37;1.50;;;;;;;;;;5012801;28;20104;-66
2023/11/25 08:47:58;;;;;;;7.13;1.20;;;;;;;;;;5018397;28;20321;-66
2023/11/25 08:50:24;;;;;;;8.20;1.30;;;;;;;;;;5018841;28;20036;-67
2023/11/25 08:52:50;;;;;;;10.93;1.60;;;;;;;;;;5020342;28;20532;-66
2023/11/25 08:55:18;;;;;;;9.00;1.20;;;;;;;;;;5020299;28;20121;-66
2023/11/25 08:57:43;;;;;;;11.43;1.70;;;;;;;;;;5022030;28;20482;-66
2023/11/25 09:00:14;;;;;;;8.23;1.87;;;;;;;;;;5016490;28;20024;-68
2023/11/25 09:02:40;;;;;;;;;;;;;;;;;;5019329;28;20121;-65
2023/11/25 09:05:05;;;;;;;6.27;1.60;;;;;;;;;;5019176;28;20024;-62
2023/11/25 09:07:31;;;;;;;10.67;1.40;;;;;;;;;;5019132;28;20048;-66
2023/11/25 09:09:56;;;;;;;7.60;1.60;;;;;;;;;;5020320;28;20022;-62
2023/11/25 09:12:21;;;;;;;8.87;1.33;;;;;;;;;;5013636;28;20022;-62
2023/11/25 09:14:48;;;;;;;10.23;1.77;;;;;;;;;;5016015;28;20033;-63
2023/11/25 09:17:15;;;;;;;9.13;1.60;;;;;;;;;;5020815;28;20036;-64
2023/11/25 09:19:40;;;;;;;10.67;1.80;;;;;;;;;;5017236;28;20061;-62
2023/11/25 09:22:06;;;;;;;13.60;1.53;;;;;;;;;;5015316;28;20077;-65
2023/11/25 09:24:31;;;;;;;7.33;1.23;;;;;;;;;;5017287;28;20045;-64
2023/11/25 09:26:56;;;;;;;15.03;1.70;;;;;;;;;;5020159;28;20025;-66
2023/11/25 09:29:22;;;;;;;9.93;1.63;;;;;;;;;;5015639;28;20022;-66
2023/11/25 09:31:47;;;;;;;14.00;1.60;;;;;;;;;;5015943;28;20117;-62
2023/11/25 09:34:12;;;;;;;10.67;1.30;;;;;;;;;;5014041;28;20025;-63
2023/11/25 09:36:37;;;;;;;8.10;1.83;;;;;;;;;;5018824;28;20041;-65
2023/11/25 09:39:03;;;;;;;5.20;1.87;;;;;;;;;;5019738;28;20034;-62
2023/11/25 09:41:30;;;;;;;12.17;1.40;;;;;;;;;;5020401;28;20034;-62
2023/11/25 09:43:56;;;;;;;2.83;1.00;;;;;;;;;;5014175;28;20036;-64
2023/11/25 09:46:22;;;;;;;6.93;1.30;;;;;;;;;;5014048;28;20038;-66
2023/11/25 09:48:47;;;;;;;6.27;1.00;;;;;;;;;;5016445;28;20053;-66
2023/11/25 09:51:14;;;;;;;4.60;1.00;;;;;;;;;;5017778;28;20029;-64
2023/11/25 09:53:40;;;;;;;5.70;0.97;;;;;;;;;;5012840;28;20351;-62
2023/11/25 09:56:06;;;;;;;5.30;1.73;;;;;;;;;;5017846;28;20516;-63
2023/11/25 09:58:35;;;;;;;4.27;0.83;;;;;;;;;;5019616;28;20030;-65
2023/11/25 10:01:05;;;;;;;4.90;0.90;;;;;;;;;;5018596;28;20465;-61
2023/11/25 10:03:32;;;;;;;4.60;0.73;;;;;;;;;;5012366;28;20022;-65
2023/11/25 10:05:57;;;;;;;6.13;0.80;;;;;;;;;;5019240;28;20462;-63
2023/11/25 10:08:23;;;;;;;6.57;0.80;;;;;;;;;;5014513;28;20035;-65
2023/11/25 10:11:01;;;;;;;7.10;1.00;;;;;;;;;;5017937;28;20023;-64
2023/11/25 10:13:30;;;;;;;4.60;0.97;;;;;;;;;;5014987;28;20022;-62
2023/11/25 10:15:55;;;;;;;3.63;0.73;;;;;;;;;;5019422;28;20450;-64
2023/11/25 10:18:22;;;;;;;2.83;0.50;;;;;;;;;;5014381;28;20095;-65
2023/11/25 10:20:49;;;;;;;2.17;0.67;;;;;;;;;;5017868;28;20060;-65
2023/11/25 10:23:20;;;;;;;3.53;0.70;;;;;;;;;;5019974;28;20564;-65
2023/11/25 10:25:45;;;;;;;3.42;0.57;;;;;;;;;;5017713;28;20700;-64
2023/11/25 10:28:14;;;;;;;3.40;0.63;;;;;;;;;;5017097;28;20019;-65
2023/11/25 10:30:40;;;;;;;4.23;0.80;;;;;;;;;;5014022;28;20022;-64
2023/11/25 10:33:07;;;;;;;1.47;0.50;;;;;;;;;;5020136;28;20079;-63
2023/11/25 10:35:34;;;;;;;4.73;0.70;;;;;;;;;;5017002;28;20586;-64
2023/11/25 10:37:59;;;;;;;6.23;1.10;;;;;;;;;;5012759;28;20045;-65
2023/11/25 10:40:27;;;;;;;7.40;0.83;;;;;;;;;;5013730;28;20421;-62
2023/11/25 10:42:52;;;;;;;8.33;0.80;;;;;;;;;;5019466;28;20025;-66
2023/11/25 10:45:21;;;;;;;2.90;1.10;;;;;;;;;;5014065;28;20018;-66
2023/11/25 10:47:47;;;;;;;3.83;0.83;;;;;;;;;;5017943;28;20116;-66
2023/11/25 10:50:15;;;;;;;6.67;1.27;;;;;;;;;;5016290;28;20032;-65
2023/11/25 10:52:42;;;;;;;6.10;1.10;;;;;;;;;;5020917;28;20108;-64
2023/11/25 10:55:11;;;;;;;5.93;1.03;;;;;;;;;;5020691;28;20473;-66
2023/11/25 10:57:37;;;;;;;7.67;1.40;;;;;;;;;;5019568;28;20037;-65
2023/11/25 11:00:10;;;;;;;6.27;1.00;;;;;;;;;;5015813;28;20112;-66
2023/11/25 11:02:41;;;;;;;8.00;1.57;;;;;;;;;;5019162;28;20025;-65
2023/11/25 11:05:08;;;;;;;9.43;2.20;;;;;;;;;;5020993;28;20140;-65
2023/11/25 11:07:36;;;;;;;7.03;1.07;;;;;;;;;;5021304;28;20350;-62
2023/11/25 11:10:05;;;;;;;8.30;1.17;;;;;;;;;;5022761;28;20021;-64
2023/11/25 11:12:37;;;;;;;6.47;1.60;;;;;;;;;;5020695;28;20431;-65
2023/11/25 11:15:07;;;;;;;7.37;1.30;;;;;;;;;;5016187;28;20382;-62
2023/11/25 11:17:44;;;;;;;8.13;1.60;;;;;;;;;;5017478;28;20381;-65
2023/11/25 11:20:12;;;;;;;5.83;1.13;;;;;;;;;;5015715;28;20147;-64
2023/11/25 11:22:40;;;;;;;9.80;1.13;;;;;;;;;;5022993;28;20052;-64
2023/11/25 11:25:16;;;;;;;5.40;1.10;;;;;;;;;;5018570;28;20522;-64
2023/11/25 11:28:02;;;;;;;8.73;1.13;;;;;;;;;;5019797;28;20028;-64
2023/11/25 11:30:49;;;;;;;7.97;1.70;;;;;;;;;;5021878;28;20079;-63
2023/11/25 11:33:14;;;;;;;13.80;1.50;;;;;;;;;;4972934;28;20109;-63
2023/11/25 11:35:40;;;;;;;10.70;1.40;;;;;;;;;;5019020;28;20104;-63
2023/11/25 11:38:24;;;;;;;8.87;1.50;;;;;;;;;;5021127;28;20033;-63
2023/11/25 11:40:59;;;;;;;7.60;1.20;;;;;;;;;;5018352;28;20040;-65
2023/11/25 11:43:24;;;;;;;7.37;1.57;;;;;;;;;;5021015;28;20025;-65
2023/11/25 11:45:57;;;;;;;9.80;1.30;;;;;;;;;;5020564;28;20436;-65
2023/11/25 11:48:24;;;;;;;7.90;1.67;;;;;;;;;;5014451;28;20037;-65
2023/11/25 11:50:51;;;;;;;8.13;1.60;;;;;;;;;;5017612;28;20026;-65
2023/11/25 11:53:16;;;;;;;5.40;1.50;;;;;;;;;;5022928;28;20451;-63
2023/11/25 11:55:41;;;;;;;11.27;1.60;;;;;;;;;;5018544;28;20108;-63
2023/11/25 11:58:08;;;;;;;8.80;1.70;;;;;;;;;;5016984;28;20026;-63
2023/11/25 12:00:46;;;;;;;9.97;1.73;;;;;;;;;;5014640;28;20079;-65
2023/11/25 12:03:14;;;;;;;3.97;1.30;;;;;;;;;;5018282;28;20017;-66
2023/11/25 12:05:40;;;;;;;7.07;1.93;;;;;;;;;;5018999;28;20026;-64
2023/11/25 12:08:06;;;;;;;12.33;2.47;;;;;;;;;;5015667;28;20026;-65
2023/11/25 12:10:31;;;;;;;9.33;1.57;;;;;;;;;;5009418;28;20040;-64
2023/11/25 12:12:57;;;;;;;2.97;1.00;;;;;;;;;;5000352;28;20014;-65
2023/11/25 12:15:22;;;;;;;5.53;1.37;;;;;;;;;;5001619;28;20028;-65
2023/11/25 12:17:48;;;;;;;9.00;1.43;;;;;;;;;;5000128;28;20034;-64
2023/11/25 12:20:16;;;;;;;4.60;0.90;;;;;;;;;;4999462;28;20029;-65
2023/11/25 12:22:42;;;;;;;4.07;0.87;;;;;;;;;;5000169;28;20049;-65
2023/11/25 12:25:16;;;;;;;4.70;1.00;;;;;;;;;;5001733;28;20033;-65
2023/11/25 12:27:47;;;;;;;3.87;1.10;;;;;;;;;;5001647;28;20069;-65
2023/11/25 12:30:12;;;;;;;11.13;1.43;;;;;;;;;;4997042;28;20486;-66
2023/11/25 12:32:38;;;;;;;9.50;1.40;;;;;;;;;;4997948;28;20264;-65
2023/11/25 12:35:04;;;;;;;4.00;0.90;;;;;;;;;;5001588;28;20041;-66
2023/11/25 12:37:30;;;;;;;4.60;0.70;;;;;;;;;;5000933;28;20034;-66
2023/11/25 12:39:55;;;;;;;2.70;0.70;;;;;;;;;;4998989;28;20034;-65
2023/11/25 12:42:23;;;;;;;3.60;0.80;;;;;;;;;;5001125;28;20073;-65
2023/11/25 12:44:49;;;;;;;4.70;0.83;;;;;;;;;;4999897;28;20389;-66
2023/11/25 12:47:15;;;;;;;3.03;0.80;;;;;;;;;;4997125;28;20036;-65
2023/11/25 12:49:41;;;;;;;4.17;0.80;;;;;;;;;;4999940;28;20416;-67
2023/11/25 12:52:17;;;;;;;2.63;1.07;;;;;;;;;;4997060;28;20029;-65
2023/11/25 12:54:44;;;;;;;3.83;0.70;;;;;;;;;;5000730;28;20022;-66
2023/11/25 12:57:10;;;;;;;6.97;0.90;;;;;;;;;;4995775;28;20022;-66
2023/11/25 12:59:35;;;;;;;3.33;0.60;;;;;;;;;;4994345;28;20467;-67
2023/11/25 13:02:04;;;;;;;3.63;0.57;;;;;;;;;;5000179;28;20087;-64
2023/11/25 13:04:29;;;;;;;6.20;1.33;;;;;;;;;;4997107;28;20675;-66
2023/11/25 13:06:59;;;;;;;3.60;0.73;;;;;;;;;;5002668;28;20022;-64
2023/11/25 13:09:27;;;;;;;3.90;0.60;;;;;;;;;;4994422;28;20038;-66
2023/11/25 13:11:53;;;;;;;1.63;0.53;;;;;;;;;;5003003;28;20033;-66
2023/11/25 13:14:19;;;;;;;1.70;0.57;;;;;;;;;;4998276;28;20021;-62
2023/11/25 13:16:44;;;;;;;5.20;0.60;;;;;;;;;;5000163;28;20482;-61
2023/11/25 13:19:09;;;;;;;2.07;0.60;;;;;;;;;;4993477;28;20040;-61
2023/11/25 13:21:35;;;;;;;3.90;0.80;;;;;;;;;;4993787;28;20059;-63
2023/11/25 13:24:00;;;;;;;5.93;0.80;;;;;;;;;;4996677;28;20089;-63
2023/11/25 13:26:27;;;;;;;1.80;0.70;;;;;;;;;;4999761;28;20120;-64
2023/11/25 13:28:53;;;;;;;4.33;0.80;;;;;;;;;;4997883;28;20544;-63
2023/11/25 13:31:18;;;;;;;3.73;0.90;;;;;;;;;;4999959;28;20026;-64
2023/11/25 13:33:43;;;;;;;4.77;0.80;;;;;;;;;;4996626;28;20029;-64
2023/11/25 13:36:09;;;;;;;5.00;1.00;;;;;;;;;;4999272;28;20049;-63
2023/11/25 13:38:34;;;;;;;3.33;0.80;;;;;;;;;;4995776;28;20065;-62
2023/11/25 13:40:59;;;;;;;5.70;1.17;;;;;;;;;;4994966;28;20426;-62
2023/11/25 13:43:24;;;;;;;4.53;1.00;;;;;;;;;;4997242;28;20034;-63
2023/11/25 13:45:50;;;;;;;3.67;0.93;;;;;;;;;;4998817;28;20344;-64
2023/11/25 13:48:17;;;;;;;6.47;1.03;;;;;;;;;;4997647;28;20360;-63
2023/11/25 13:50:42;;;;;;;6.80;1.27;;;;;;;;;;4999931;28;20489;-64
2023/11/25 13:53:08;;;;;;;6.50;1.27;;;;;;;;;;4996923;28;20034;-63
2023/11/25 13:55:37;;;;;;;3.87;1.00;;;;;;;;;;4991793;28;20026;-64
2023/11/25 13:58:05;;;;;;;4.37;1.10;;;;;;;;;;4998123;28;20032;-63
2023/11/25 14:00:31;;;;;;;6.63;1.50;;;;;;;;;;4997667;28;20378;-64
2023/11/25 14:02:59;;;;;;;6.27;1.30;;;;;;;;;;4998408;28;20030;-62
2023/11/25 14:05:25;;;;;;;8.47;1.23;;;;;;;;;;4994432;28;20530;-63
2023/11/25 14:07:51;;;;;;;6.87;1.70;;;;;;;;;;4998962;28;20030;-64
2023/11/25 14:10:16;;;;;;;10.53;1.60;;;;;;;;;;5000463;28;20024;-63
2023/11/25 14:12:42;;;;;;;4.63;1.90;;;;;;;;;;5002039;28;20022;-64
2023/11/25 14:15:07;;;;;;;6.33;2.03;;;;;;;;;;4998914;28;20105;-63
2023/11/25 14:17:39;;;;;;;6.93;1.80;;;;;;;;;;4995716;28;20037;-63
2023/11/25 14:20:14;;;;;;;7.63;1.50;;;;;;;;;;4997227;28;20034;-63
2023/11/25 14:22:40;;;;;;;8.23;1.27;;;;;;;;;;5000228;28;20053;-62
2023/11/25 14:25:08;;;;;;;6.30;1.20;;;;;;;;;;4996849;28;20025;-63
2023/11/25 14:27:33;;;;;;;4.27;1.07;;;;;;;;;;4999568;28;20034;-64
2023/11/25 14:29:59;;;;;;;7.13;1.40;;;;;;;;;;5007016;28;20026;-62